Ogden, Arkansas
Current Conditions -  °F | °C
As of 11:53 PM on Saturday 22 Nov 2014 (Local Time) from KTXK Reporting Station
Moderate Rain Moderate Rain  
Wind Chill: 60°   Ceiling: 7000
Heat Index: 60°   Visibility: 3mi
Dew Point: 60°   Wind: 10mph
Humidity: 100%   Direction: 120°ESE
Pressure: 29.79"   Gusts: NA
Location:  33.58°N, 94.04°W
Report Text: KTXK 230553Z AUTO 12009KT 3SM RA BR FEW007 BKN070 OVC090 16/16 A2979 RMK AO2 PRESFR SLP084 P0022 60043 T01560156 10178 20156 402170122 56022
Loading
Personal Weather Stations






























Interactive Weather Map New forecast layout! Learn more

10-Day Weather Forecast

Advertisements
Track Severe Weather on mobile